createdAt,value
2022-11-17T00:02:14.732Z,7.05
2022-11-17T00:07:16.223Z,4.60
2022-11-17T00:12:36.295Z,4.55
2022-11-17T00:17:37.710Z,4.65
2022-11-17T00:22:39.083Z,5.65
2022-11-17T00:27:41.335Z,24.88
2022-11-17T00:33:11.691Z,5.07
2022-11-17T00:38:15.667Z,4.68
2022-11-17T00:43:17.062Z,6.55
2022-11-17T00:48:18.425Z,35.53
2022-11-17T00:53:19.811Z,17.35
2022-11-17T00:58:21.170Z,4.32
2022-11-17T01:03:22.540Z,4.82
2022-11-17T01:08:23.900Z,5.10
2022-11-17T01:13:25.253Z,5.32
2022-11-17T01:18:27.607Z,5.40
2022-11-17T01:23:28.977Z,4.30
2022-11-17T01:28:30.703Z,3.85
2022-11-17T01:33:32.264Z,5.38
2022-11-17T01:38:34.048Z,4.55
2022-11-17T01:43:54.042Z,5.97
2022-11-17T01:49:02.736Z,5.85
2022-11-17T01:54:04.486Z,4.25
2022-11-17T01:59:14.142Z,4.30
2022-11-17T02:04:15.543Z,3.60
2022-11-17T02:09:17.119Z,11.10
2022-11-17T02:14:18.520Z,3.53
2022-11-17T02:19:21.203Z,3.50
2022-11-17T02:24:41.066Z,4.55
2022-11-17T02:29:52.493Z,2.88
2022-11-17T02:35:09.073Z,2.38
2022-11-17T02:40:19.804Z,3.08
2022-11-17T02:45:27.880Z,4.38
2022-11-17T02:50:29.928Z,3.47
2022-11-17T02:55:35.155Z,2.78
2022-11-17T03:00:44.001Z,3.13
2022-11-17T03:06:00.280Z,3.28
2022-11-17T03:11:05.223Z,3.22
2022-11-17T03:16:18.603Z,4.18
2022-11-17T03:21:40.732Z,3.33
2022-11-17T03:26:48.538Z,2.05
2022-11-17T03:31:55.556Z,2.97
2022-11-17T03:37:00.890Z,7.63
2022-11-17T03:42:09.781Z,3.72
2022-11-17T03:47:13.126Z,6.80
2022-11-17T03:52:14.686Z,2.60
2022-11-17T03:57:26.470Z,5.40
2022-11-17T04:02:28.152Z,23.65
2022-11-17T04:07:29.593Z,26.02
2022-11-17T04:12:49.352Z,45.38
2022-11-17T04:17:50.899Z,226.40
2022-11-17T04:23:07.448Z,26.58
2022-11-17T04:28:27.233Z,9.82
2022-11-17T04:33:28.629Z,24.08
2022-11-17T04:38:30.230Z,39.85
2022-11-17T04:43:31.749Z,104.38
2022-11-17T04:48:33.169Z,280.70
2022-11-17T04:53:35.074Z,186.02
2022-11-17T04:58:36.851Z,42.03
2022-11-17T05:03:55.526Z,155.13
2022-11-17T05:08:56.900Z,113.53
2022-11-17T05:13:58.471Z,98.18
2022-11-17T05:18:59.965Z,10.80
2022-11-17T05:24:01.594Z,22.65
2022-11-17T05:29:05.047Z,23.02
2022-11-17T05:34:09.105Z,39.20
2022-11-17T05:39:10.634Z,3.60
2022-11-17T05:44:12.014Z,5.70
2022-11-17T05:49:13.428Z,3.65
2022-11-17T05:54:14.782Z,4.63
2022-11-17T05:59:32.701Z,4.88
2022-11-17T06:04:34.631Z,4.75
2022-11-17T06:09:40.076Z,7.55
2022-11-17T06:14:41.621Z,10.85
2022-11-17T06:19:49.007Z,7.80
2022-11-17T06:24:50.601Z,100.30
2022-11-17T06:29:52.785Z,8.27
2022-11-17T06:34:56.375Z,8.57
2022-11-17T06:39:57.969Z,7.00
2022-11-17T06:44:59.326Z,11.82
2022-11-17T06:50:00.720Z,4.65
2022-11-17T06:55:02.124Z,5.18
2022-11-17T07:00:06.007Z,5.10
2022-11-17T07:05:07.730Z,6.35
2022-11-17T07:10:09.453Z,4.07
2022-11-17T07:15:11.204Z,4.65
2022-11-17T07:20:13.507Z,4.55
2022-11-17T07:25:21.098Z,5.63
2022-11-17T07:30:23.720Z,5.45
2022-11-17T07:35:25.109Z,6.45
2022-11-17T07:40:27.246Z,5.18
2022-11-17T07:45:31.870Z,5.55
2022-11-17T07:50:35.050Z,4.25
2022-11-17T07:55:36.426Z,5.82
2022-11-17T08:00:37.897Z,4.78
2022-11-17T08:05:43.407Z,4.32
2022-11-17T08:10:45.707Z,5.60
2022-11-17T08:15:47.174Z,4.40
2022-11-17T08:20:48.574Z,5.47
2022-11-17T08:25:49.954Z,5.22
2022-11-17T08:30:51.419Z,4.72
2022-11-17T08:35:52.787Z,9.07
2022-11-17T08:40:58.783Z,6.78
2022-11-17T08:46:00.182Z,4.85
2022-11-17T08:51:06.568Z,4.97
2022-11-17T08:56:12.448Z,4.28
2022-11-17T09:01:16.529Z,7.57
2022-11-17T09:06:18.111Z,11.43
2022-11-17T09:11:20.085Z,6.70
2022-11-17T09:16:23.861Z,6.43
2022-11-17T09:21:27.154Z,6.97
2022-11-17T09:26:28.669Z,7.85
2022-11-17T09:31:30.475Z,5.18
2022-11-17T09:36:32.063Z,7.13
2022-11-17T09:41:44.008Z,6.20
2022-11-17T09:47:00.748Z,7.55
2022-11-17T09:52:10.642Z,6.15
2022-11-17T09:57:25.323Z,6.05
2022-11-17T10:02:26.835Z,7.10
2022-11-17T10:07:31.507Z,6.43
2022-11-17T10:12:38.742Z,5.15
2022-11-17T10:17:40.131Z,4.97
2022-11-17T10:22:42.071Z,3.85
2022-11-17T10:27:51.991Z,6.57
2022-11-17T10:32:58.755Z,5.03
2022-11-17T10:38:03.613Z,5.25
2022-11-17T10:43:13.860Z,5.70
2022-11-17T10:48:31.226Z,4.55
2022-11-17T10:53:42.818Z,4.82
2022-11-17T10:59:23.894Z,4.78
2022-11-17T11:04:33.037Z,6.70
2022-11-17T11:09:39.145Z,7.88
2022-11-17T11:14:48.785Z,6.07
2022-11-17T11:19:52.600Z,7.65
2022-11-17T11:25:03.132Z,5.50
2022-11-17T11:30:16.549Z,5.15
2022-11-17T11:36:04.392Z,6.22
2022-11-17T11:41:35.676Z,5.43
2022-11-17T11:46:49.303Z,7.53
2022-11-17T11:51:51.941Z,5.75
2022-11-17T11:56:53.599Z,5.90
2022-11-17T12:02:07.002Z,6.28
2022-11-17T12:07:56.684Z,6.55
2022-11-17T12:12:59.258Z,6.05
2022-11-17T12:18:27.098Z,6.07
2022-11-17T12:23:41.113Z,7.22
2022-11-17T12:28:42.548Z,7.07
2022-11-17T12:33:53.065Z,6.72
2022-11-17T12:38:55.522Z,5.68
2022-11-17T12:44:31.723Z,7.30
2022-11-17T12:49:54.771Z,7.50
2022-11-17T12:55:05.620Z,6.68
2022-11-17T13:00:29.376Z,6.25
2022-11-17T13:05:30.762Z,6.78
2022-11-17T13:10:33.206Z,6.30
2022-11-17T13:15:34.676Z,7.57
2022-11-17T13:20:39.321Z,5.70
2022-11-17T13:25:40.848Z,4.53
2022-11-17T13:30:46.308Z,4.65
2022-11-17T13:35:47.756Z,5.00
2022-11-17T13:40:51.615Z,5.57
2022-11-17T13:45:54.307Z,5.13
2022-11-17T13:50:55.696Z,7.82
2022-11-17T13:55:57.081Z,6.88
2022-11-17T14:00:59.048Z,5.65
2022-11-17T14:06:00.665Z,5.32
2022-11-17T14:11:21.199Z,6.15
2022-11-17T14:16:28.833Z,5.63
2022-11-17T14:21:31.822Z,5.78
2022-11-17T14:26:33.524Z,6.15
2022-11-17T14:31:35.043Z,8.55
2022-11-17T14:36:39.135Z,7.05
2022-11-17T14:41:41.880Z,6.53
2022-11-17T14:46:43.313Z,5.50
2022-11-17T14:51:49.296Z,6.20
2022-11-17T14:56:50.895Z,6.25
2022-11-17T15:01:52.343Z,6.57
2022-11-17T15:06:53.788Z,6.38
2022-11-17T15:11:55.267Z,7.32
2022-11-17T15:16:57.059Z,5.40
2022-11-17T15:21:58.486Z,8.15
2022-11-17T15:26:59.946Z,7.57
2022-11-17T15:32:01.338Z,8.80
2022-11-17T15:37:03.035Z,7.35
2022-11-17T15:42:04.530Z,6.45
2022-11-17T15:47:06.373Z,8.15
2022-11-17T15:52:07.850Z,6.70
2022-11-17T15:57:09.267Z,6.80
2022-11-17T16:02:10.739Z,6.65
2022-11-17T16:07:12.180Z,6.65
2022-11-17T16:12:13.763Z,8.40
2022-11-17T16:17:15.233Z,7.00
2022-11-17T16:22:16.679Z,9.45
2022-11-17T16:27:18.059Z,7.80
2022-11-17T16:32:19.464Z,6.80
2022-11-17T16:37:20.896Z,32.45
2022-11-17T16:42:22.332Z,9.52
2022-11-17T16:47:23.835Z,7.32
2022-11-17T16:52:25.298Z,6.50
2022-11-17T16:57:30.083Z,7.28
2022-11-17T17:02:33.004Z,8.60
2022-11-17T17:12:35.872Z,7.03
2022-11-17T17:17:37.514Z,7.38
2022-11-17T17:22:38.912Z,8.35
2022-11-17T17:27:40.311Z,7.20
2022-11-17T17:32:41.686Z,6.82
2022-11-17T17:37:43.074Z,7.25
2022-11-17T17:42:44.461Z,5.88
2022-11-17T17:47:45.846Z,7.13
2022-11-17T17:52:47.234Z,6.65
2022-11-17T17:57:48.594Z,6.20
2022-11-17T18:02:50.030Z,6.90
2022-11-17T18:07:51.546Z,7.93
2022-11-17T18:12:53.006Z,20.70
2022-11-17T18:17:54.428Z,12.80
2022-11-17T18:22:56.504Z,11.20
2022-11-17T18:27:57.914Z,9.53
2022-11-17T18:33:02.949Z,8.63
2022-11-17T18:38:04.702Z,9.70
2022-11-17T18:43:06.187Z,8.60
2022-11-17T18:48:07.866Z,12.10
2022-11-17T18:53:10.058Z,11.88
2022-11-17T18:58:11.477Z,56.50
2022-11-17T19:03:12.864Z,62.70
2022-11-17T19:08:14.839Z,36.38
2022-11-17T19:13:16.398Z,8.25
2022-11-17T19:18:18.607Z,17.15
2022-11-17T19:23:20.057Z,12.63
2022-11-17T19:28:21.784Z,16.35
2022-11-17T19:33:23.234Z,29.85
2022-11-17T19:38:24.765Z,21.13
2022-11-17T19:43:26.213Z,15.15
2022-11-17T19:48:29.487Z,42.00
2022-11-17T19:53:30.955Z,12.60
2022-11-17T19:58:32.511Z,10.70
2022-11-17T20:03:34.437Z,11.70
2022-11-17T20:08:36.060Z,48.47
2022-11-17T20:13:38.555Z,65.30
2022-11-17T20:18:41.579Z,199.52
2022-11-17T20:28:45.750Z,12.43
2022-11-17T20:33:48.291Z,19.63
2022-11-17T20:38:54.031Z,14.15
2022-11-17T20:43:57.410Z,14.80
2022-11-17T20:48:58.857Z,9.48
2022-11-17T20:54:00.364Z,10.95
2022-11-17T20:59:01.887Z,10.05
2022-11-17T21:04:03.595Z,11.10
2022-11-17T21:09:05.023Z,9.95
2022-11-17T21:14:08.127Z,10.73
2022-11-17T21:19:09.757Z,9.98
2022-11-17T21:24:11.475Z,10.02
2022-11-17T21:29:12.927Z,9.30
2022-11-17T21:34:16.599Z,11.50
2022-11-17T21:39:19.627Z,10.77
2022-11-17T21:44:21.759Z,11.10
2022-11-17T21:49:23.176Z,13.18
2022-11-17T21:54:24.580Z,14.20
2022-11-17T21:59:26.008Z,13.93
2022-11-17T22:04:27.424Z,13.80
2022-11-17T22:09:28.885Z,15.63
2022-11-17T22:14:30.412Z,14.40
2022-11-17T22:19:33.586Z,14.77
2022-11-17T22:24:35.040Z,16.70
2022-11-17T22:29:36.548Z,37.30
2022-11-17T22:34:37.927Z,20.27
2022-11-17T22:39:39.441Z,47.05
2022-11-17T22:44:41.225Z,175.35
2022-11-17T22:49:42.642Z,195.88
2022-11-17T22:54:44.339Z,375.63
2022-11-17T22:59:45.823Z,182.00
2022-11-17T23:04:47.228Z,292.13
2022-11-17T23:09:48.616Z,245.15
2022-11-17T23:14:50.044Z,227.35
2022-11-17T23:19:51.476Z,132.82
2022-11-17T23:24:52.876Z,71.50
2022-11-17T23:29:54.480Z,95.95
2022-11-17T23:34:56.043Z,118.40
2022-11-17T23:39:57.426Z,17.77
2022-11-17T23:44:58.841Z,72.30
2022-11-17T23:50:00.266Z,17.27
2022-11-17T23:55:01.910Z,35.05
